Time;durP1;ratioP1;P1;durP2;ratioP2;P2;SDS_P1;SDS_P2;PMS_P1;PMS_P2;Temp;Humidity;BMP_temperature;BMP_pressure;BME280_temperature;BME280_humidity;BME280_pressure;Samples;Min_cycle;Max_cycle;Signal;HPM_P1;HPM_P2
2021/01/01 00:01:47;;;;;;;1.77;1.70;;;5.30;99.90;;;;;;5033242;28;20184;-76
2021/01/01 00:04:13;;;;;;;5.10;2.90;;;5.10;99.90;;;;;;5032939;28;20231;-75
2021/01/01 00:06:50;;;;;;;4.05;3.28;;;5.10;99.90;;;;;;5032809;28;20164;-78
2021/01/01 00:09:17;;;;;;;7.13;1.98;;;5.00;99.90;;;;;;5033032;28;20167;-78
2021/01/01 00:11:46;;;;;;;3.85;3.55;;;5.10;99.90;;;;;;5032803;28;20160;-78
2021/01/01 00:14:13;;;;;;;4.40;3.30;;;5.20;99.90;;;;;;5032632;28;20682;-75
2021/01/01 00:16:40;;;;;;;3.97;2.47;;;5.10;99.90;;;;;;5032931;28;20510;-75
2021/01/01 00:19:06;;;;;;;1.90;1.80;;;5.20;99.90;;;;;;5032722;28;20198;-75
2021/01/01 00:21:32;;;;;;;4.63;4.05;;;5.10;99.90;;;;;;5032608;28;20152;-76
2021/01/01 00:23:58;;;;;;;2.60;2.50;;;4.90;99.90;;;;;;5032133;28;20198;-75
2021/01/01 00:26:24;;;;;;;3.15;2.35;;;4.90;99.90;;;;;;5032982;28;20267;-76
2021/01/01 00:28:50;;;;;;;3.47;2.85;;;4.90;99.90;;;;;;5032488;28;20226;-75
2021/01/01 00:31:24;;;;;;;3.60;2.60;;;5.10;99.90;;;;;;5032940;28;20160;-76
2021/01/01 00:33:51;;;;;;;2.60;2.08;;;4.80;99.90;;;;;;5032751;28;20226;-76
2021/01/01 00:36:18;;;;;;;5.45;3.08;;;5.00;99.90;;;;;;5032522;28;20167;-76
2021/01/01 00:38:50;;;;;;;2.47;2.30;;;4.80;99.90;;;;;;5032761;28;20149;-77
2021/01/01 00:41:26;;;;;;;2.65;2.42;;;4.90;99.90;;;;;;5032793;28;20163;-76
2021/01/01 00:43:54;;;;;;;4.15;3.75;;;4.80;99.90;;;;;;5034065;28;20213;-75
2021/01/01 00:46:23;;;;;;;2.90;2.70;;;4.70;99.90;;;;;;5036415;28;20198;-76
2021/01/01 00:48:49;;;;;;;4.93;3.15;;;4.80;99.90;;;;;;5036307;28;20631;-76
2021/01/01 00:51:26;;;;;;;3.70;2.88;;;4.70;99.90;;;;;;5035987;28;20227;-76
2021/01/01 00:53:52;;;;;;;1.50;1.40;;;4.80;99.90;;;;;;5035601;28;20235;-76
2021/01/01 00:56:22;;;;;;;5.43;3.22;;;5.00;99.90;;;;;;5036316;28;20168;-76
2021/01/01 00:58:49;;;;;;;1.50;1.45;;;5.10;99.90;;;;;;5017953;28;20172;-75
2021/01/01 01:01:26;;;;;;;4.85;2.63;;;4.90;99.90;;;;;;5035832;28;20500;-76
2021/01/01 01:03:52;;;;;;;2.97;2.65;;;4.80;99.90;;;;;;5017904;28;20222;-75
2021/01/01 01:06:19;;;;;;;5.35;3.42;;;4.90;99.90;;;;;;5035683;28;20218;-76
2021/01/01 01:08:45;;;;;;;2.53;2.33;;;5.10;99.90;;;;;;5035460;28;20164;-76
2021/01/01 01:11:11;;;;;;;1.67;1.58;;;5.30;99.90;;;;;;5035546;28;20160;-76
2021/01/01 01:13:37;;;;;;;4.22;2.30;;;5.30;99.90;;;;;;5017537;28;20187;-77
2021/01/01 01:16:03;;;;;;;4.03;3.67;;;5.20;99.90;;;;;;5035181;28;20187;-76
2021/01/01 01:18:29;;;;;;;3.17;2.53;;;5.20;99.90;;;;;;5035472;28;20258;-76
2021/01/01 01:20:57;;;;;;;2.58;2.38;;;5.40;99.90;;;;;;5035201;28;20532;-75
2021/01/01 01:23:23;;;;;;;2.03;1.92;;;5.50;99.90;;;;;;5035320;28;20171;-76
2021/01/01 01:25:49;;;;;;;2.60;2.50;;;5.30;99.90;;;;;;5035043;28;20184;-75
2021/01/01 01:28:15;;;;;;;1.58;1.58;;;5.60;99.90;;;;;;5017396;28;20234;-75
2021/01/01 01:30:41;;;;;;;9.13;4.65;;;5.70;99.90;;;;;;5035174;28;20160;-76
2021/01/01 01:33:08;;;;;;;2.63;2.33;;;5.40;99.90;;;;;;5035077;28;20176;-75
2021/01/01 01:35:35;;;;;;;2.72;2.58;;;5.30;99.90;;;;;;5034979;28;20190;-75
2021/01/01 01:38:05;;;;;;;2.42;2.30;;;4.90;99.90;;;;;;5035121;28;20236;-76
2021/01/01 01:40:31;;;;;;;10.70;4.65;;;4.90;99.90;;;;;;5034971;28;20172;-76
2021/01/01 01:42:57;;;;;;;3.75;2.83;;;5.00;99.90;;;;;;5035018;28;20277;-75
2021/01/01 01:45:23;;;;;;;6.07;3.58;;;5.10;99.90;;;;;;5034952;28;20527;-75
2021/01/01 01:47:49;;;;;;;2.58;2.47;;;5.10;99.90;;;;;;5035448;28;20160;-77
2021/01/01 01:50:16;;;;;;;4.40;3.70;;;5.20;99.90;;;;;;5035304;28;20623;-76
2021/01/01 01:52:46;;;;;;;16.77;3.28;;;5.40;99.90;;;;;;5035397;28;20183;-76
2021/01/01 01:55:12;;;;;;;2.20;2.10;;;5.40;99.90;;;;;;5035447;28;20211;-77
2021/01/01 01:57:37;;;;;;;15.82;3.83;;;5.40;99.90;;;;;;5036607;28;20184;-75
2021/01/01 02:00:24;;;;;;;3.42;2.45;;;5.70;99.90;;;;;;5052314;28;20179;-76
2021/01/01 02:02:53;;;;;;;0.98;0.98;;;5.50;99.90;;;;;;5051460;28;20168;-75
2021/01/01 02:05:18;;;;;;;3.38;3.05;;;5.20;99.90;;;;;;5047081;28;20236;-77
2021/01/01 02:07:44;;;;;;;2.22;2.00;;;5.30;99.90;;;;;;5034489;28;20278;-77
2021/01/01 02:10:11;;;;;;;4.70;2.53;;;5.40;99.90;;;;;;5034379;28;20614;-76
2021/01/01 02:12:36;;;;;;;2.45;1.63;;;5.40;99.90;;;;;;5034491;28;20152;-77
2021/01/01 02:15:03;;;;;;;1.85;1.38;;;5.50;99.90;;;;;;5034094;28;20702;-76
2021/01/01 02:17:29;;;;;;;2.63;2.47;;;5.50;99.90;;;;;;5016399;28;20206;-76
2021/01/01 02:20:16;;;;;;;8.20;2.95;;;5.30;99.90;;;;;;5034149;28;20630;-77
2021/01/01 02:22:42;;;;;;;8.63;3.10;;;5.20;99.90;;;;;;5034105;28;20171;-76
2021/01/01 02:25:09;;;;;;;2.78;2.47;;;5.00;99.90;;;;;;5034132;28;20864;-76
2021/01/01 02:27:36;;;;;;;2.33;2.13;;;5.10;99.90;;;;;;5034901;28;20682;-77
2021/01/01 02:30:03;;;;;;;2.00;1.75;;;5.10;99.90;;;;;;5034309;28;20175;-76
2021/01/01 02:32:29;;;;;;;2.33;1.83;;;5.10;99.90;;;;;;5034393;28;20160;-77
2021/01/01 02:34:54;;;;;;;1.15;1.15;;;5.10;99.90;;;;;;5034839;28;20223;-76
2021/01/01 02:37:20;;;;;;;3.65;2.97;;;5.10;99.90;;;;;;5034346;28;20247;-76
2021/01/01 02:39:45;;;;;;;1.75;1.67;;;5.10;99.90;;;;;;5034388;28;20167;-77
2021/01/01 02:42:11;;;;;;;0.80;0.80;;;5.10;99.90;;;;;;5016651;28;20178;-76
2021/01/01 02:44:36;;;;;;;1.60;1.50;;;5.10;99.90;;;;;;5034618;28;20273;-76
2021/01/01 02:47:05;;;;;;;0.90;0.90;;;5.30;99.90;;;;;;5034364;28;20168;-76
2021/01/01 02:49:31;;;;;;;4.60;1.40;;;5.20;99.90;;;;;;5034383;28;20510;-76
2021/01/01 02:51:58;;;;;;;1.52;1.52;;;5.20;99.90;;;;;;5034340;28;20160;-76
2021/01/01 02:54:23;;;;;;;4.20;2.38;;;5.20;99.90;;;;;;5034033;28;20235;-76
2021/01/01 02:56:49;;;;;;;2.15;2.05;;;5.40;99.90;;;;;;5033842;28;20202;-76
2021/01/01 02:59:15;;;;;;;2.00;1.90;;;5.20;99.90;;;;;;5033844;28;20211;-76
2021/01/01 03:01:40;;;;;;;1.02;0.93;;;5.30;99.90;;;;;;5033766;28;20160;-76
2021/01/01 03:04:06;;;;;;;1.48;1.45;;;5.20;99.90;;;;;;5033578;28;20227;-76
2021/01/01 03:06:31;;;;;;;3.30;3.00;;;5.00;99.90;;;;;;5032821;28;20649;-77
2021/01/01 03:08:58;;;;;;;1.10;1.10;;;4.90;99.90;;;;;;5033580;28;20184;-75
2021/01/01 03:11:23;;;;;;;0.55;0.55;;;5.10;99.90;;;;;;5033437;28;20639;-75
2021/01/01 03:13:49;;;;;;;1.02;0.95;;;5.00;99.90;;;;;;5033369;28;20224;-75
2021/01/01 03:16:15;;;;;;;7.95;2.40;;;4.90;99.90;;;;;;5033599;28;20191;-75
2021/01/01 03:18:40;;;;;;;3.95;3.60;;;4.80;99.90;;;;;;5033622;28;20152;-76
2021/01/01 03:21:06;;;;;;;0.82;0.82;;;5.00;99.90;;;;;;5033693;28;20160;-74
2021/01/01 03:23:31;;;;;;;1.08;1.08;;;5.10;99.90;;;;;;5033526;28;20168;-75
2021/01/01 03:25:57;;;;;;;1.83;1.73;;;5.00;99.90;;;;;;5033150;28;20193;-74
2021/01/01 03:28:23;;;;;;;2.88;2.22;;;4.80;99.90;;;;;;5034030;28;20611;-75
2021/01/01 03:30:48;;;;;;;2.03;1.95;;;4.90;99.90;;;;;;5033366;28;20202;-76
2021/01/01 03:33:14;;;;;;;1.42;1.38;;;4.90;99.90;;;;;;5033011;28;20258;-75
2021/01/01 03:35:39;;;;;;;0.60;0.60;;;4.80;99.90;;;;;;5033103;28;20187;-75
2021/01/01 03:38:05;;;;;;;5.95;1.95;;;4.70;99.90;;;;;;5033212;28;20170;-74
2021/01/01 03:40:31;;;;;;;3.72;1.52;;;4.60;99.90;;;;;;5033118;28;20167;-75
2021/01/01 03:42:57;;;;;;;1.15;1.13;;;4.80;99.90;;;;;;5015491;28;20176;-77
2021/01/01 03:45:22;;;;;;;0.93;0.93;;;5.10;99.90;;;;;;5033091;28;20191;-78
2021/01/01 03:47:48;;;;;;;2.63;2.42;;;5.20;99.90;;;;;;5033483;28;20512;-76
2021/01/01 03:50:14;;;;;;;1.55;1.38;;;5.10;99.90;;;;;;5033253;28;20171;-75
2021/01/01 03:52:39;;;;;;;3.75;2.15;;;5.00;99.90;;;;;;5033020;28;20167;-77
2021/01/01 03:55:05;;;;;;;1.23;1.23;;;4.80;99.90;;;;;;5032908;28;20262;-77
2021/01/01 03:57:31;;;;;;;1.30;1.20;;;4.70;99.90;;;;;;5032792;28;20657;-77
2021/01/01 03:59:57;;;;;;;0.93;0.93;;;4.80;99.90;;;;;;5032864;28;20176;-75
2021/01/01 04:02:22;;;;;;;2.00;1.20;;;5.10;99.90;;;;;;5033037;28;20189;-77
2021/01/01 04:04:48;;;;;;;1.98;1.88;;;5.10;99.90;;;;;;5032757;28;20227;-77
2021/01/01 04:07:13;;;;;;;0.47;0.47;;;4.90;99.90;;;;;;5032863;28;20242;-76
2021/01/01 04:09:39;;;;;;;2.10;2.00;;;5.00;99.90;;;;;;5015569;28;20168;-75
2021/01/01 04:12:05;;;;;;;1.27;1.27;;;5.10;99.90;;;;;;5033366;28;20180;-76
2021/01/01 04:14:30;;;;;;;0.98;0.98;;;5.10;99.90;;;;;;5033307;28;20199;-75
2021/01/01 04:16:56;;;;;;;1.40;1.33;;;4.90;99.90;;;;;;5033310;28;20518;-75
2021/01/01 04:19:22;;;;;;;1.25;1.23;;;5.00;99.90;;;;;;5035582;28;20174;-75
2021/01/01 04:21:48;;;;;;;0.47;0.47;;;4.60;99.90;;;;;;5036863;28;20160;-75
2021/01/01 04:24:18;;;;;;;1.95;1.85;;;4.70;99.90;;;;;;5018763;28;20202;-75
2021/01/01 04:26:45;;;;;;;1.88;1.77;;;4.60;99.90;;;;;;5036536;28;20650;-75
2021/01/01 04:29:11;;;;;;;0.60;0.60;;;4.60;99.90;;;;;;5036577;28;20635;-74
2021/01/01 04:31:36;;;;;;;1.60;1.50;;;4.70;99.90;;;;;;5036685;28;20159;-74
2021/01/01 04:34:06;;;;;;;6.03;1.55;;;4.80;99.90;;;;;;5027922;28;20244;-74
2021/01/01 04:36:31;;;;;;;1.77;1.33;;;4.70;99.90;;;;;;5054569;28;20236;-75
2021/01/01 04:38:57;;;;;;;1.92;1.63;;;4.70;99.90;;;;;;5060178;28;20148;-75
2021/01/01 04:41:23;;;;;;;0.85;0.85;;;4.80;99.90;;;;;;5041133;28;20164;-76
2021/01/01 04:43:53;;;;;;;2.00;1.90;;;4.70;99.90;;;;;;5036395;28;20195;-76
2021/01/01 04:46:19;;;;;;;1.55;1.45;;;4.60;99.90;;;;;;5036221;28;20172;-75
2021/01/01 04:48:45;;;;;;;0.47;0.47;;;4.50;99.90;;;;;;5036204;28;20615;-75
2021/01/01 04:51:12;;;;;;;1.17;1.17;;;4.40;99.90;;;;;;5036182;28;20160;-77
2021/01/01 04:53:39;;;;;;;1.63;1.52;;;4.30;99.90;;;;;;5036076;28;20200;-77
2021/01/01 04:56:05;;;;;;;3.03;2.72;;;4.30;99.90;;;;;;5036084;28;20180;-77
2021/01/01 04:58:32;;;;;;;2.13;1.20;;;4.10;99.90;;;;;;5035947;28;20167;-78
2021/01/01 05:00:58;;;;;;;5.05;1.42;;;4.10;99.90;;;;;;5035889;28;20168;-77
2021/01/01 05:03:24;;;;;;;1.50;1.40;;;4.10;99.90;;;;;;5035992;28;20172;-77
2021/01/01 05:05:53;;;;;;;1.35;1.25;;;4.30;99.90;;;;;;5035452;28;20258;-76
2021/01/01 05:08:20;;;;;;;1.50;1.42;;;4.20;99.90;;;;;;5035800;28;20250;-76
2021/01/01 05:10:46;;;;;;;2.67;2.38;;;4.40;99.90;;;;;;5035622;28;20168;-74
2021/01/01 05:13:17;;;;;;;1.48;1.38;;;4.40;99.90;;;;;;5017833;28;20180;-75
2021/01/01 05:15:44;;;;;;;1.05;1.05;;;4.40;99.90;;;;;;5035402;28;20188;-76
2021/01/01 05:18:18;;;;;;;0.57;0.55;;;4.10;99.90;;;;;;5035583;28;20639;-74
2021/01/01 05:20:44;;;;;;;0.82;0.82;;;4.00;99.90;;;;;;5035480;28;20176;-75
2021/01/01 05:23:25;;;;;;;1.77;1.75;;;3.90;99.90;;;;;;5035355;28;20579;-76
2021/01/01 05:26:11;;;;;;;0.70;0.70;;;3.80;99.90;;;;;;5035318;28;20187;-77
2021/01/01 05:28:48;;;;;;;3.00;2.05;;;4.10;99.90;;;;;;5017723;28;20631;-78
2021/01/01 05:31:17;;;;;;;2.10;1.50;;;3.90;99.90;;;;;;5034276;28;20156;-78
2021/01/01 05:33:49;;;;;;;1.23;0.88;;;3.90;99.90;;;;;;5035380;28;20247;-78
2021/01/01 05:36:15;;;;;;;1.27;1.27;;;3.80;99.90;;;;;;5035198;28;20187;-77
2021/01/01 05:38:40;;;;;;;1.20;1.17;;;3.80;99.90;;;;;;5035207;28;20200;-77
2021/01/01 05:41:06;;;;;;;0.73;0.73;;;3.90;99.90;;;;;;5035202;28;20152;-76
2021/01/01 05:43:32;;;;;;;1.75;1.65;;;3.80;99.90;;;;;;5017422;28;20538;-75
2021/01/01 05:46:08;;;;;;;1.45;0.88;;;3.80;99.90;;;;;;5035132;28;20198;-75
2021/01/01 05:48:33;;;;;;;2.28;1.73;;;3.80;99.90;;;;;;5017517;28;20167;-75
2021/01/01 05:51:08;;;;;;;0.82;0.82;;;3.90;99.90;;;;;;5035176;28;20175;-74
2021/01/01 05:53:34;;;;;;;1.08;1.08;;;3.90;99.90;;;;;;5034733;28;20237;-75
2021/01/01 05:56:07;;;;;;;1.20;1.20;;;4.00;99.90;;;;;;5034864;28;20711;-75
2021/01/01 05:58:32;;;;;;;0.95;0.95;;;4.30;99.90;;;;;;5034942;28;20214;-76
2021/01/01 06:00:58;;;;;;;1.00;0.85;;;4.30;99.90;;;;;;5034755;28;20172;-76
2021/01/01 06:03:33;;;;;;;2.00;1.27;;;4.30;99.90;;;;;;5034876;28;20226;-75
2021/01/01 06:06:04;;;;;;;1.55;1.35;;;4.40;99.90;;;;;;5034622;28;20214;-75
2021/01/01 06:08:31;;;;;;;1.00;0.82;;;4.30;99.90;;;;;;5034675;28;20576;-75
2021/01/01 06:11:04;;;;;;;4.35;2.95;;;4.00;99.90;;;;;;5034551;28;20258;-77
2021/01/01 06:13:35;;;;;;;3.22;2.47;;;4.00;99.90;;;;;;5034545;28;20187;-77
2021/01/01 06:16:04;;;;;;;3.03;2.42;;;4.00;99.90;;;;;;5016583;28;20246;-76
2021/01/01 06:18:31;;;;;;;0.98;0.98;;;3.90;99.90;;;;;;5016903;28;20156;-77
2021/01/01 06:21:05;;;;;;;2.42;1.88;;;3.80;99.90;;;;;;5034340;28;20168;-77
2021/01/01 06:23:32;;;;;;;1.10;1.08;;;4.00;99.90;;;;;;5034376;28;20221;-76
2021/01/01 06:25:59;;;;;;;0.63;0.63;;;3.90;99.90;;;;;;5034529;28;20588;-75
2021/01/01 06:28:26;;;;;;;1.25;1.25;;;3.90;99.90;;;;;;5034290;28;20508;-76
2021/01/01 06:30:56;;;;;;;1.77;1.67;;;3.90;99.90;;;;;;5034261;28;20167;-76
2021/01/01 06:33:23;;;;;;;5.40;1.58;;;3.80;99.90;;;;;;5034206;28;20199;-77
2021/01/01 06:35:49;;;;;;;1.27;1.25;;;3.80;99.90;;;;;;5034390;28;20198;-75
2021/01/01 06:38:42;;;;;;;1.52;1.52;;;3.80;99.90;;;;;;5034067;28;20164;-75
2021/01/01 06:41:35;;;;;;;2.20;2.08;;;3.70;99.90;;;;;;5034150;28;20160;-78
2021/01/01 06:44:00;;;;;;;2.67;1.52;;;3.90;99.90;;;;;;5034005;28;20202;-74
2021/01/01 06:46:33;;;;;;;1.98;1.83;;;3.80;99.90;;;;;;5034126;28;20220;-75
2021/01/01 06:49:00;;;;;;;0.88;0.88;;;3.60;99.90;;;;;;5033902;28;20172;-75
2021/01/01 06:51:28;;;;;;;9.48;1.60;;;3.60;99.90;;;;;;5033902;28;20160;-78
2021/01/01 06:54:09;;;;;;;0.55;0.55;;;3.60;99.90;;;;;;5033663;28;20203;-75
2021/01/01 06:56:35;;;;;;;0.95;0.95;;;3.50;99.90;;;;;;5033806;28;20172;-75
2021/01/01 06:59:08;;;;;;;0.45;0.45;;;3.60;99.90;;;;;;5033697;28;20175;-78
2021/01/01 07:01:43;;;;;;;0.65;0.65;;;3.70;99.90;;;;;;5034220;28;20148;-77
2021/01/01 07:04:09;;;;;;;1.83;1.58;;;3.80;99.90;;;;;;5033583;28;20794;-76
2021/01/01 07:06:36;;;;;;;1.38;1.38;;;3.90;99.90;;;;;;5033702;28;20176;-76
2021/01/01 07:09:03;;;;;;;0.88;0.88;;;3.80;99.90;;;;;;5046233;28;20598;-74
2021/01/01 07:11:29;;;;;;;1.58;1.48;;;3.90;99.90;;;;;;5052462;28;20160;-76
2021/01/01 07:13:56;;;;;;;0.93;0.93;;;4.10;99.90;;;;;;5051607;28;20211;-77
2021/01/01 07:16:23;;;;;;;18.45;1.05;;;4.10;99.90;;;;;;5034034;28;20195;-76
2021/01/01 07:18:50;;;;;;;2.05;1.92;;;4.00;99.90;;;;;;5033325;28;20630;-77
2021/01/01 07:21:18;;;;;;;0.80;0.80;;;3.90;99.90;;;;;;5033592;28;20510;-76
2021/01/01 07:23:45;;;;;;;0.47;0.47;;;3.90;99.90;;;;;;5033489;28;20164;-77
2021/01/01 07:26:11;;;;;;;1.25;1.15;;;4.10;99.90;;;;;;5033308;28;20207;-77
2021/01/01 07:28:42;;;;;;;6.15;1.20;;;4.50;99.90;;;;;;5033212;28;20168;-76
2021/01/01 07:31:12;;;;;;;0.50;0.50;;;4.50;99.90;;;;;;5033124;28;20205;-73
2021/01/01 07:33:39;;;;;;;5.05;1.25;;;4.50;99.90;;;;;;5033197;28;20667;-73
2021/01/01 07:36:06;;;;;;;1.25;1.15;;;4.20;99.90;;;;;;5032870;28;20190;-74
2021/01/01 07:38:34;;;;;;;1.50;1.40;;;4.20;99.90;;;;;;5033032;28;20202;-74
2021/01/01 07:41:00;;;;;;;1.33;1.33;;;4.30;99.90;;;;;;5032863;28;20171;-73
2021/01/01 07:43:26;;;;;;;5.30;2.30;;;4.30;99.90;;;;;;5033110;28;20260;-74
2021/01/01 07:46:00;;;;;;;15.52;1.65;;;4.30;99.90;;;;;;5032812;28;20183;-74
2021/01/01 07:48:26;;;;;;;1.23;1.15;;;4.50;99.90;;;;;;5033029;28;20631;-73
2021/01/01 07:50:56;;;;;;;1.38;1.38;;;4.60;99.90;;;;;;5033157;28;20247;-74
2021/01/01 07:53:22;;;;;;;1.25;0.85;;;5.00;99.90;;;;;;5034151;28;20721;-74
2021/01/01 07:55:47;;;;;;;0.55;0.55;;;4.90;99.90;;;;;;5037055;28;20246;-74
2021/01/01 07:58:15;;;;;;;1.23;1.20;;;4.80;99.90;;;;;;5019137;28;20171;-75
2021/01/01 08:00:43;;;;;;;0.40;0.40;;;4.60;99.90;;;;;;5036790;28;20221;-73
2021/01/01 08:03:10;;;;;;;0.57;0.57;;;4.80;99.90;;;;;;5037471;28;20179;-75
2021/01/01 08:05:36;;;;;;;0.70;0.70;;;4.90;99.90;;;;;;5036643;28;20223;-76
2021/01/01 08:08:23;;;;;;;0.80;0.80;;;4.90;99.90;;;;;;5021181;28;20706;-74
2021/01/01 08:10:50;;;;;;;1.02;1.02;;;5.10;99.90;;;;;;5036858;28;20278;-76
2021/01/01 08:13:21;;;;;;;2.15;1.50;;;5.30;99.90;;;;;;5019039;28;20164;-76
2021/01/01 08:15:49;;;;;;;0.85;0.85;;;5.20;99.90;;;;;;5036753;28;20696;-77
2021/01/01 08:18:18;;;;;;;0.73;0.73;;;5.10;99.90;;;;;;5031670;28;20198;-77
2021/01/01 08:20:46;;;;;;;1.15;1.15;;;5.00;99.90;;;;;;5016016;28;20179;-76
2021/01/01 08:23:19;;;;;;;0.95;0.95;;;5.30;99.90;;;;;;5015292;28;20161;-75
2021/01/01 08:25:47;;;;;;;2.05;1.92;;;5.30;99.90;;;;;;5015453;28;20190;-76
2021/01/01 08:28:18;;;;;;;0.68;0.68;;;5.10;99.90;;;;;;5015737;28;20161;-77
2021/01/01 08:30:44;;;;;;;0.65;0.65;;;5.20;99.90;;;;;;4997994;28;20168;-76
2021/01/01 08:33:11;;;;;;;0.85;0.85;;;5.40;99.90;;;;;;5015151;28;20172;-77
2021/01/01 08:35:36;;;;;;;2.85;1.73;;;5.30;99.90;;;;;;5015715;28;20208;-75
2021/01/01 08:38:18;;;;;;;2.55;2.03;;;5.50;99.90;;;;;;5018842;28;20183;-76
2021/01/01 08:40:51;;;;;;;3.45;1.00;;;5.40;99.90;;;;;;5015442;28;20172;-76
2021/01/01 08:43:16;;;;;;;0.77;0.77;;;5.20;99.90;;;;;;5015146;28;20248;-77
2021/01/01 08:45:43;;;;;;;0.40;0.40;;;5.20;99.90;;;;;;5015197;28;20660;-79
2021/01/01 08:48:10;;;;;;;0.90;0.90;;;5.20;99.90;;;;;;5022893;28;20176;-80
2021/01/01 08:50:50;;;;;;;0.47;0.47;;;5.30;99.90;;;;;;5034920;28;20172;-79
2021/01/01 08:53:16;;;;;;;0.40;0.40;;;5.00;99.90;;;;;;5034685;28;20175;-79
2021/01/01 08:55:42;;;;;;;1.00;1.00;;;5.00;99.90;;;;;;5034564;28;20184;-76
2021/01/01 08:58:14;;;;;;;1.48;1.45;;;5.20;99.90;;;;;;5035204;28;20498;-76
2021/01/01 09:00:46;;;;;;;3.13;1.92;;;5.20;99.90;;;;;;5016915;28;20681;-77
2021/01/01 09:03:13;;;;;;;1.48;1.38;;;5.30;99.90;;;;;;5031937;28;20183;-83
2021/01/01 09:05:39;;;;;;;0.40;0.40;;;5.30;99.90;;;;;;5004530;28;20243;-76
2021/01/01 09:08:12;;;;;;;0.65;0.65;;;5.30;99.90;;;;;;4997365;28;20173;-78
2021/01/01 09:10:40;;;;;;;0.60;0.60;;;5.40;99.90;;;;;;5015206;28;20180;-78
2021/01/01 09:13:18;;;;;;;0.55;0.55;;;5.60;99.90;;;;;;5014717;28;20165;-78
2021/01/01 09:15:45;;;;;;;5.13;1.30;;;5.70;99.90;;;;;;5015300;28;20196;-78
2021/01/01 09:18:12;;;;;;;3.65;1.48;;;5.70;99.90;;;;;;5022594;28;20237;-77
2021/01/01 09:20:42;;;;;;;5.25;1.00;;;5.70;99.90;;;;;;5034741;28;20160;-78
2021/01/01 09:23:09;;;;;;;5.13;1.40;;;5.80;99.90;;;;;;5034014;28;20633;-78
2021/01/01 09:25:35;;;;;;;0.90;0.90;;;5.70;99.90;;;;;;5033207;28;20282;-77
2021/01/01 09:28:02;;;;;;;1.50;1.20;;;5.40;99.90;;;;;;5034371;28;20233;-76
2021/01/01 09:30:32;;;;;;;2.47;1.65;;;5.60;99.90;;;;;;5030366;28;20644;-78
2021/01/01 09:33:00;;;;;;;1.95;0.68;;;5.70;99.90;;;;;;5021274;28;20236;-78
2021/01/01 09:35:27;;;;;;;3.28;1.20;;;5.50;99.90;;;;;;5025668;28;20200;-76
2021/01/01 09:37:54;;;;;;;1.10;1.10;;;5.70;99.90;;;;;;5019753;28;20561;-76
2021/01/01 09:40:22;;;;;;;0.43;0.43;;;5.70;99.90;;;;;;5024515;28;20172;-77
2021/01/01 09:42:48;;;;;;;0.65;0.65;;;5.80;99.90;;;;;;5027497;28;20199;-77
2021/01/01 09:45:15;;;;;;;1.05;1.05;;;5.70;99.90;;;;;;5044401;28;20684;-77
2021/01/01 09:47:41;;;;;;;0.57;0.57;;;5.60;99.90;;;;;;5046356;28;20172;-77
2021/01/01 09:50:07;;;;;;;1.38;1.25;;;5.80;99.90;;;;;;5015121;28;20175;-76
2021/01/01 09:52:34;;;;;;;1.95;1.70;;;5.80;99.90;;;;;;5021069;28;20172;-74
2021/01/01 09:55:00;;;;;;;1.83;1.73;;;6.10;99.90;;;;;;5018846;28;20205;-77
2021/01/01 09:57:26;;;;;;;1.35;1.25;;;5.90;99.90;;;;;;5014573;28;20263;-75
2021/01/01 09:59:51;;;;;;;1.13;1.02;;;5.90;99.90;;;;;;5018658;28;20549;-76
2021/01/01 10:02:17;;;;;;;1.00;1.00;;;5.80;99.90;;;;;;5013873;28;20152;-77
2021/01/01 10:04:42;;;;;;;2.05;1.63;;;5.90;99.90;;;;;;5013337;28;20282;-77
2021/01/01 10:07:08;;;;;;;0.77;0.77;;;6.00;99.90;;;;;;5013762;28;20173;-75
2021/01/01 10:09:33;;;;;;;0.93;0.93;;;6.20;99.90;;;;;;5013425;28;20227;-78
2021/01/01 10:12:05;;;;;;;0.85;0.85;;;6.60;99.90;;;;;;5013126;28;20750;-77
2021/01/01 10:14:31;;;;;;;2.95;1.38;;;6.80;99.90;;;;;;5012305;28;20232;-77
2021/01/01 10:16:57;;;;;;;1.52;1.42;;;6.80;99.90;;;;;;5017116;28;20167;-75
2021/01/01 10:19:22;;;;;;;1.38;1.27;;;6.40;99.90;;;;;;5031732;28;20175;-76
2021/01/01 10:21:48;;;;;;;2.38;0.80;;;6.30;99.90;;;;;;5033474;28;20239;-77
2021/01/01 10:24:13;;;;;;;1.00;1.00;;;6.40;99.90;;;;;;5032435;28;20659;-76
2021/01/01 10:26:39;;;;;;;0.60;0.60;;;6.30;99.90;;;;;;5015650;28;20270;-77
2021/01/01 10:29:04;;;;;;;9.70;1.70;;;6.50;99.90;;;;;;5033805;28;20175;-76
2021/01/01 10:31:30;;;;;;;1.88;1.77;;;6.40;99.90;;;;;;5014597;28;20263;-75
2021/01/01 10:33:55;;;;;;;1.52;1.38;;;6.30;99.90;;;;;;5033039;28;20200;-78
2021/01/01 10:36:21;;;;;;;2.10;1.98;;;6.30;99.90;;;;;;5028495;28;20174;-82
2021/01/01 10:38:47;;;;;;;0.85;0.85;;;6.20;99.90;;;;;;5033825;28;20156;-77
2021/01/01 10:41:14;;;;;;;0.57;0.57;;;6.00;99.90;;;;;;5033698;28;20163;-78
2021/01/01 10:43:40;;;;;;;1.23;1.13;;;6.00;99.90;;;;;;5013870;28;20196;-75
2021/01/01 10:46:06;;;;;;;0.57;0.57;;;6.00;99.90;;;;;;5013597;28;20279;-78
2021/01/01 10:48:32;;;;;;;0.85;0.85;;;6.10;99.90;;;;;;5014024;28;20243;-76
2021/01/01 10:50:57;;;;;;;1.85;1.40;;;6.20;99.90;;;;;;5014091;28;20579;-76
2021/01/01 10:53:23;;;;;;;1.05;0.95;;;6.20;99.90;;;;;;5013490;28;20640;-78
2021/01/01 10:55:50;;;;;;;3.00;2.13;;;6.10;99.90;;;;;;5013439;28;20188;-76
2021/01/01 10:58:23;;;;;;;2.53;1.05;;;6.20;99.90;;;;;;5014394;28;20248;-77
2021/01/01 11:00:56;;;;;;;0.90;0.90;;;6.30;99.90;;;;;;5027302;28;20194;-77
2021/01/01 11:03:22;;;;;;;0.82;0.82;;;6.10;99.90;;;;;;5013617;28;20185;-77
2021/01/01 11:05:50;;;;;;;1.63;1.52;;;6.10;99.90;;;;;;5013446;28;20228;-77
2021/01/01 11:08:16;;;;;;;1.73;1.60;;;6.10;99.90;;;;;;4996063;28;20176;-76
2021/01/01 11:10:42;;;;;;;0.50;0.50;;;6.10;99.90;;;;;;5012906;28;20169;-76
2021/01/01 11:13:07;;;;;;;1.33;1.27;;;6.20;99.90;;;;;;5028890;28;20226;-77
2021/01/01 12:27:01;;;;;;;0.90;0.90;;;7.00;99.90;;;;;;5013095;28;20176;-79
2021/01/01 12:29:28;;;;;;;1.80;1.10;;;6.90;99.90;;;;;;4995190;28;20251;-76
2021/01/01 12:31:55;;;;;;;1.02;1.02;;;6.90;99.90;;;;;;5013038;28;20243;-83
2021/01/01 12:34:21;;;;;;;1.25;1.15;;;6.90;99.90;;;;;;5012878;28;20212;-82
2021/01/01 12:36:47;;;;;;;1.98;1.88;;;6.80;99.90;;;;;;5012573;28;20539;-77
2021/01/01 12:39:12;;;;;;;1.55;1.20;;;6.80;99.90;;;;;;5013485;28;20235;-79
2021/01/01 12:41:38;;;;;;;1.33;1.23;;;6.90;99.90;;;;;;5015570;28;20199;-78
2021/01/01 12:44:04;;;;;;;3.00;2.22;;;6.60;99.90;;;;;;5015823;28;20625;-78
2021/01/01 12:46:30;;;;;;;1.80;1.70;;;6.60;99.90;;;;;;5016329;28;20196;-76
2021/01/01 12:48:56;;;;;;;6.93;2.03;;;6.60;99.90;;;;;;5016012;28;20215;-78
2021/01/01 12:51:21;;;;;;;0.73;0.65;;;6.90;99.90;;;;;;5016039;28;20849;-77
2021/01/01 12:53:47;;;;;;;2.25;1.25;;;6.80;99.90;;;;;;5016475;28;20259;-76
2021/01/01 12:56:13;;;;;;;1.52;1.23;;;6.90;99.90;;;;;;5015441;28;20188;-78
2021/01/01 12:58:39;;;;;;;1.00;1.00;;;7.10;99.90;;;;;;5015934;28;20659;-78
2021/01/01 13:01:05;;;;;;;0.68;0.63;;;7.10;99.90;;;;;;5015750;28;20165;-78
2021/01/01 13:03:30;;;;;;;2.03;1.85;;;6.90;99.90;;;;;;4998045;28;20203;-79
2021/01/01 13:05:56;;;;;;;1.88;1.77;;;6.80;99.90;;;;;;5014716;28;20205;-78
2021/01/01 13:08:21;;;;;;;0.88;0.88;;;6.70;99.90;;;;;;5016018;28;20255;-77
2021/01/01 13:10:47;;;;;;;7.75;1.13;;;6.80;99.90;;;;;;5015898;28;20244;-77
2021/01/01 13:13:13;;;;;;;1.15;1.15;;;6.90;99.90;;;;;;5015788;28;20185;-75
2021/01/01 13:15:39;;;;;;;2.88;1.33;;;7.00;99.90;;;;;;5015549;28;20270;-75
2021/01/01 13:18:05;;;;;;;3.13;1.52;;;6.90;99.90;;;;;;5015813;28;20160;-77
2021/01/01 13:20:31;;;;;;;0.85;0.85;;;6.90;99.90;;;;;;5073985;23;20568;-77
2021/01/01 13:22:56;;;;;;;1.00;1.00;;;7.00;99.90;;;;;;5070568;28;20209;-76
2021/01/01 13:25:22;;;;;;;1.92;1.83;;;7.00;99.90;;;;;;5058882;28;20583;-77
2021/01/01 13:27:47;;;;;;;1.95;1.85;;;7.00;99.90;;;;;;5065901;28;20658;-77
2021/01/01 13:30:16;;;;;;;4.47;2.10;;;6.90;99.90;;;;;;5054815;28;20661;-77
2021/01/01 13:32:43;;;;;;;1.85;1.75;;;6.90;99.90;;;;;;5053719;28;20211;-77
2021/01/01 13:35:09;;;;;;;1.15;0.93;;;7.00;99.90;;;;;;5070764;28;20263;-77
2021/01/01 13:37:35;;;;;;;0.70;0.70;;;7.00;99.90;;;;;;5067302;28;20167;-77
2021/01/01 13:40:04;;;;;;;1.42;1.33;;;6.90;99.90;;;;;;5054471;28;20198;-76
2021/01/01 13:42:30;;;;;;;0.57;0.57;;;6.90;99.90;;;;;;5054838;28;20190;-77
2021/01/01 13:44:55;;;;;;;2.47;1.23;;;7.00;99.90;;;;;;5068389;28;20654;-76
2021/01/01 13:47:23;;;;;;;2.33;2.13;;;7.10;99.90;;;;;;5068719;28;20200;-77
2021/01/01 13:49:48;;;;;;;1.65;1.55;;;7.00;99.90;;;;;;5054466;28;20187;-77
2021/01/01 13:52:15;;;;;;;1.02;1.02;;;7.10;99.90;;;;;;5052154;28;20553;-77
2021/01/01 13:54:40;;;;;;;4.10;1.48;;;7.00;99.90;;;;;;5066856;28;20213;-77
2021/01/01 13:57:06;;;;;;;2.08;0.63;;;7.00;99.90;;;;;;5070639;28;20533;-77
2021/01/01 13:59:31;;;;;;;0.65;0.65;;;7.20;99.90;;;;;;5054003;28;20625;-77
2021/01/01 14:01:57;;;;;;;1.38;1.20;;;7.30;99.90;;;;;;5054447;28;20155;-77
2021/01/01 14:04:22;;;;;;;1.02;0.93;;;7.40;99.90;;;;;;5064696;28;20669;-77
2021/01/01 14:06:48;;;;;;;2.55;0.90;;;7.40;99.90;;;;;;5071796;28;20257;-76
2021/01/01 14:09:14;;;;;;;0.88;0.88;;;7.40;99.90;;;;;;5054226;28;20183;-77
2021/01/01 14:11:51;;;;;;;1.88;1.73;;;7.30;99.90;;;;;;5053855;28;20210;-76